sensor_id;sensor_type;location;lat;lon;timestamp;pressure;altitude;pressure_sealevel;temperature;humidity
18850;BME280;4989;48.772;9.154;2024-01-06T00:00:42;96813.00;;;7.87;99.26
18850;BME280;4989;48.772;9.154;2024-01-06T00:05:45;96815.28;;;8.26;99.63
18850;BME280;4989;48.772;9.154;2024-01-06T00:10:48;96817.88;;;9.12;100.00
18850;BME280;4989;48.772;9.154;2024-01-06T00:15:50;96827.09;;;9.15;91.33
18850;BME280;4989;48.772;9.154;2024-01-06T00:20:53;96829.19;;;9.55;90.56
18850;BME280;4989;48.772;9.154;2024-01-06T00:25:56;96829.00;;;9.05;91.17
18850;BME280;4989;48.772;9.154;2024-01-06T00:30:59;96835.06;;;8.11;96.69
18850;BME280;4989;48.772;9.154;2024-01-06T00:36:02;96830.78;;;8.39;94.88
18850;BME280;4989;48.772;9.154;2024-01-06T00:41:05;96828.03;;;7.88;97.05
18850;BME280;4989;48.772;9.154;2024-01-06T00:46:08;96833.44;;;8.13;97.41
18850;BME280;4989;48.772;9.154;2024-01-06T00:51:10;96837.78;;;8.49;92.68
18850;BME280;4989;48.772;9.154;2024-01-06T00:56:13;96842.31;;;8.01;95.05
18850;BME280;4989;48.772;9.154;2024-01-06T01:01:16;96846.66;;;7.86;97.19
18850;BME280;4989;48.772;9.154;2024-01-06T01:06:18;96863.00;;;7.53;100.00
18850;BME280;4989;48.772;9.154;2024-01-06T01:11:21;96852.94;;;7.41;100.00
18850;BME280;4989;48.772;9.154;2024-01-06T01:16:24;96858.88;;;7.36;100.00
18850;BME280;4989;48.772;9.154;2024-01-06T01:21:27;96863.59;;;7.31;100.00
18850;BME280;4989;48.772;9.154;2024-01-06T01:26:30;96869.53;;;7.26;100.00
18850;BME280;4989;48.772;9.154;2024-01-06T01:31:32;96861.94;;;7.21;100.00
18850;BME280;4989;48.772;9.154;2024-01-06T01:36:37;96882.56;;;7.15;100.00
18850;BME280;4989;48.772;9.154;2024-01-06T01:41:40;96872.31;;;7.23;100.00
18850;BME280;4989;48.772;9.154;2024-01-06T01:46:43;96887.16;;;7.60;100.00
18850;BME280;4989;48.772;9.154;2024-01-06T01:51:46;96887.78;;;8.06;99.67
18850;BME280;4989;48.772;9.154;2024-01-06T01:56:49;96897.00;;;7.54;99.39
18850;BME280;4989;48.772;9.154;2024-01-06T02:01:52;96890.69;;;6.99;100.00
18850;BME280;4989;48.772;9.154;2024-01-06T02:06:54;96900.97;;;7.20;100.00
18850;BME280;4989;48.772;9.154;2024-01-06T02:11:58;96898.94;;;7.08;100.00
18850;BME280;4989;48.772;9.154;2024-01-06T02:17:00;96905.19;;;7.05;100.00
18850;BME280;4989;48.772;9.154;2024-01-06T02:22:03;96906.72;;;7.06;100.00
18850;BME280;4989;48.772;9.154;2024-01-06T02:27:06;96903.88;;;6.97;100.00
18850;BME280;4989;48.772;9.154;2024-01-06T02:32:09;96917.53;;;7.06;100.00
18850;BME280;4989;48.772;9.154;2024-01-06T02:37:11;96922.75;;;7.29;100.00
18850;BME280;4989;48.772;9.154;2024-01-06T02:42:14;96928.75;;;7.21;100.00
18850;BME280;4989;48.772;9.154;2024-01-06T02:47:17;96922.34;;;6.65;100.00
18850;BME280;4989;48.772;9.154;2024-01-06T02:52:20;96925.31;;;6.71;100.00
18850;BME280;4989;48.772;9.154;2024-01-06T02:57:22;96931.50;;;6.35;100.00
18850;BME280;4989;48.772;9.154;2024-01-06T03:02:25;96940.88;;;6.31;100.00
18850;BME280;4989;48.772;9.154;2024-01-06T03:07:28;96929.69;;;6.49;100.00
18850;BME280;4989;48.772;9.154;2024-01-06T03:12:30;96925.63;;;6.89;100.00
18850;BME280;4989;48.772;9.154;2024-01-06T03:17:33;96936.69;;;6.46;100.00
18850;BME280;4989;48.772;9.154;2024-01-06T03:22:36;96935.91;;;6.46;100.00
18850;BME280;4989;48.772;9.154;2024-01-06T03:27:40;96930.00;;;6.34;100.00
18850;BME280;4989;48.772;9.154;2024-01-06T03:32:43;96924.28;;;6.49;100.00
18850;BME280;4989;48.772;9.154;2024-01-06T03:37:45;96922.09;;;6.43;100.00
18850;BME280;4989;48.772;9.154;2024-01-06T03:42:48;96927.50;;;6.76;100.00
18850;BME280;4989;48.772;9.154;2024-01-06T03:47:51;96919.03;;;7.07;99.07
18850;BME280;4989;48.772;9.154;2024-01-06T03:52:54;96917.97;;;6.88;100.00
18850;BME280;4989;48.772;9.154;2024-01-06T03:57:56;96925.75;;;7.48;99.04
18850;BME280;4989;48.772;9.154;2024-01-06T04:02:59;96927.75;;;7.44;95.38
18850;BME280;4989;48.772;9.154;2024-01-06T04:08:01;96926.81;;;7.21;97.35
18850;BME280;4989;48.772;9.154;2024-01-06T04:13:04;96939.16;;;7.06;99.48
18850;BME280;4989;48.772;9.154;2024-01-06T04:18:07;96929.41;;;7.25;98.40
18850;BME280;4989;48.772;9.154;2024-01-06T04:23:11;96937.56;;;7.38;94.36
18850;BME280;4989;48.772;9.154;2024-01-06T04:28:14;96941.50;;;6.71;100.00
18850;BME280;4989;48.772;9.154;2024-01-06T04:33:16;96948.47;;;6.36;100.00
18850;BME280;4989;48.772;9.154;2024-01-06T04:38:19;96953.59;;;6.30;100.00
18850;BME280;4989;48.772;9.154;2024-01-06T04:43:22;96948.44;;;6.72;100.00
18850;BME280;4989;48.772;9.154;2024-01-06T04:48:25;96955.53;;;6.66;100.00
18850;BME280;4989;48.772;9.154;2024-01-06T04:53:27;96944.72;;;6.66;100.00
18850;BME280;4989;48.772;9.154;2024-01-06T04:58:30;96958.09;;;6.53;100.00
18850;BME280;4989;48.772;9.154;2024-01-06T05:03:33;96958.34;;;6.42;100.00
18850;BME280;4989;48.772;9.154;2024-01-06T05:08:36;96954.16;;;6.41;100.00
18850;BME280;4989;48.772;9.154;2024-01-06T05:13:43;96968.69;;;6.64;99.96
18850;BME280;4989;48.772;9.154;2024-01-06T05:18:46;96968.50;;;6.71;99.24
18850;BME280;4989;48.772;9.154;2024-01-06T05:23:49;96975.44;;;7.96;100.00
18850;BME280;4989;48.772;9.154;2024-01-06T05:28:52;96968.31;;;8.02;88.44
18850;BME280;4989;48.772;9.154;2024-01-06T05:33:55;96977.09;;;7.48;91.02
18850;BME280;4989;48.772;9.154;2024-01-06T05:38:58;96986.81;;;7.45;92.79
18850;BME280;4989;48.772;9.154;2024-01-06T05:44:02;96977.22;;;8.15;89.64
18850;BME280;4989;48.772;9.154;2024-01-06T05:49:05;96997.34;;;7.56;89.21
18850;BME280;4989;48.772;9.154;2024-01-06T05:54:08;96992.84;;;7.20;91.96
18850;BME280;4989;48.772;9.154;2024-01-06T05:59:10;97003.66;;;7.20;92.27
18850;BME280;4989;48.772;9.154;2024-01-06T06:04:13;97015.19;;;6.88;94.47
18850;BME280;4989;48.772;9.154;2024-01-06T06:09:16;97030.28;;;6.69;97.99
18850;BME280;4989;48.772;9.154;2024-01-06T06:14:18;97041.06;;;6.69;97.82
18850;BME280;4989;48.772;9.154;2024-01-06T06:19:21;97036.97;;;6.81;98.45
18850;BME280;4989;48.772;9.154;2024-01-06T06:24:24;97037.97;;;7.69;94.43
18850;BME280;4989;48.772;9.154;2024-01-06T06:29:26;97044.16;;;8.27;99.79
18850;BME280;4989;48.772;9.154;2024-01-06T06:34:31;97047.28;;;9.32;86.64
18850;BME280;4989;48.772;9.154;2024-01-06T06:39:34;97057.75;;;8.40;85.70
18850;BME280;4989;48.772;9.154;2024-01-06T06:44:37;97063.00;;;7.56;91.32
18850;BME280;4989;48.772;9.154;2024-01-06T06:49:40;97059.97;;;7.05;96.77
18850;BME280;4989;48.772;9.154;2024-01-06T06:54:43;97071.44;;;7.26;95.80
18850;BME280;4989;48.772;9.154;2024-01-06T06:59:46;97081.66;;;7.18;94.65
18850;BME280;4989;48.772;9.154;2024-01-06T07:04:49;97082.25;;;6.53;100.00
18850;BME280;4989;48.772;9.154;2024-01-06T07:09:51;97089.34;;;6.27;100.00
18850;BME280;4989;48.772;9.154;2024-01-06T07:14:54;97088.31;;;6.21;100.00
18850;BME280;4989;48.772;9.154;2024-01-06T07:19:57;97092.28;;;6.13;100.00
18850;BME280;4989;48.772;9.154;2024-01-06T07:24:59;97094.22;;;6.32;100.00
18850;BME280;4989;48.772;9.154;2024-01-06T07:30:02;97094.78;;;6.43;100.00
18850;BME280;4989;48.772;9.154;2024-01-06T07:35:05;97099.25;;;6.54;100.00
18850;BME280;4989;48.772;9.154;2024-01-06T07:40:10;97106.00;;;6.62;100.00
18850;BME280;4989;48.772;9.154;2024-01-06T07:45:12;97104.50;;;6.61;100.00
18850;BME280;4989;48.772;9.154;2024-01-06T07:50:16;97108.84;;;6.35;100.00
18850;BME280;4989;48.772;9.154;2024-01-06T07:55:18;97100.59;;;6.22;100.00
18850;BME280;4989;48.772;9.154;2024-01-06T08:00:21;97100.81;;;6.31;100.00
18850;BME280;4989;48.772;9.154;2024-01-06T08:05:24;97115.56;;;6.47;98.83
18850;BME280;4989;48.772;9.154;2024-01-06T08:10:27;97104.59;;;6.94;95.34
18850;BME280;4989;48.772;9.154;2024-01-06T08:15:29;97117.56;;;6.82;93.12
18850;BME280;4989;48.772;9.154;2024-01-06T08:20:34;97114.88;;;6.42;95.59
18850;BME280;4989;48.772;9.154;2024-01-06T08:25:37;97114.41;;;6.48;96.62
18850;BME280;4989;48.772;9.154;2024-01-06T08:30:40;97123.19;;;6.52;95.10
18850;BME280;4989;48.772;9.154;2024-01-06T08:35:43;97122.94;;;6.23;97.30
18850;BME280;4989;48.772;9.154;2024-01-06T08:40:46;97120.47;;;6.32;95.91
18850;BME280;4989;48.772;9.154;2024-01-06T08:45:50;97127.75;;;6.55;95.89
18850;BME280;4989;48.772;9.154;2024-01-06T08:50:53;97130.06;;;6.93;91.36
18850;BME280;4989;48.772;9.154;2024-01-06T08:55:56;97135.41;;;6.96;93.84
18850;BME280;4989;48.772;9.154;2024-01-06T09:00:59;97145.84;;;7.14;91.07
18850;BME280;4989;48.772;9.154;2024-01-06T09:06:02;97137.31;;;7.32;87.78
18850;BME280;4989;48.772;9.154;2024-01-06T09:11:05;97145.78;;;7.83;86.04
18850;BME280;4989;48.772;9.154;2024-01-06T09:16:08;97146.00;;;8.21;86.68
18850;BME280;4989;48.772;9.154;2024-01-06T09:21:11;97154.94;;;7.56;86.16
18850;BME280;4989;48.772;9.154;2024-01-06T09:26:14;97157.84;;;8.27;100.00
18850;BME280;4989;48.772;9.154;2024-01-06T09:31:18;97156.63;;;9.54;96.33
18850;BME280;4989;48.772;9.154;2024-01-06T09:36:21;97167.38;;;10.31;88.02
18850;BME280;4989;48.772;9.154;2024-01-06T09:41:24;97175.84;;;11.21;80.86
18850;BME280;4989;48.772;9.154;2024-01-06T09:46:28;97180.19;;;10.18;69.90
18850;BME280;4989;48.772;9.154;2024-01-06T09:51:36;97181.91;;;10.37;84.90
18850;BME280;4989;48.772;9.154;2024-01-06T09:56:40;97183.31;;;11.70;84.78
18850;BME280;4989;48.772;9.154;2024-01-06T10:01:43;97190.16;;;12.70;74.01
18850;BME280;4989;48.772;9.154;2024-01-06T10:06:46;97192.28;;;13.55;73.27
18850;BME280;4989;48.772;9.154;2024-01-06T10:11:49;97192.53;;;13.14;64.18
18850;BME280;4989;48.772;9.154;2024-01-06T10:16:52;97183.50;;;11.13;78.45
18850;BME280;4989;48.772;9.154;2024-01-06T10:21:55;97189.47;;;9.31;80.01
18850;BME280;4989;48.772;9.154;2024-01-06T10:27:03;97191.53;;;8.10;89.90
18850;BME280;4989;48.772;9.154;2024-01-06T10:32:06;97192.97;;;7.82;93.00
18850;BME280;4989;48.772;9.154;2024-01-06T10:37:09;97187.63;;;7.95;97.93
18850;BME280;4989;48.772;9.154;2024-01-06T10:42:14;97189.94;;;8.58;99.09
18850;BME280;4989;48.772;9.154;2024-01-06T10:47:17;97190.47;;;9.88;87.12
18850;BME280;4989;48.772;9.154;2024-01-06T10:52:21;97187.56;;;9.44;91.47
18850;BME280;4989;48.772;9.154;2024-01-06T10:57:25;97197.78;;;8.40;92.92
18850;BME280;4989;48.772;9.154;2024-01-06T11:02:28;97182.25;;;9.53;100.00
18850;BME280;4989;48.772;9.154;2024-01-06T11:07:31;97186.47;;;11.28;92.86
18850;BME280;4989;48.772;9.154;2024-01-06T11:12:34;97180.28;;;12.08;79.92
18850;BME280;4989;48.772;9.154;2024-01-06T11:17:56;97182.34;;;11.55;80.22
18850;BME280;4989;48.772;9.154;2024-01-06T11:23:18;97182.34;;;11.55;82.80
18850;BME280;4989;48.772;9.154;2024-01-06T11:28:25;97184.72;;;11.43;77.50
18850;BME280;4989;48.772;9.154;2024-01-06T11:33:28;97172.47;;;10.16;80.44
18850;BME280;4989;48.772;9.154;2024-01-06T11:38:37;97167.69;;;11.93;85.17
18850;BME280;4989;48.772;9.154;2024-01-06T11:43:39;97168.03;;;12.96;77.98
18850;BME280;4989;48.772;9.154;2024-01-06T11:48:43;97157.38;;;13.07;72.38
18850;BME280;4989;48.772;9.154;2024-01-06T11:53:53;97156.47;;;13.10;75.40
18850;BME280;4989;48.772;9.154;2024-01-06T11:58:56;97144.59;;;13.98;72.62
18850;BME280;4989;48.772;9.154;2024-01-06T12:03:59;97150.75;;;12.99;65.95
18850;BME280;4989;48.772;9.154;2024-01-06T12:09:20;97151.69;;;11.23;78.88
18850;BME280;4989;48.772;9.154;2024-01-06T12:14:22;97149.56;;;10.74;85.48
18850;BME280;4989;48.772;9.154;2024-01-06T12:19:26;97149.88;;;12.28;84.46
18850;BME280;4989;48.772;9.154;2024-01-06T12:24:30;97154.66;;;11.87;74.63
18850;BME280;4989;48.772;9.154;2024-01-06T12:29:33;97150.34;;;11.28;77.62
18850;BME280;4989;48.772;9.154;2024-01-06T12:34:35;97149.56;;;10.52;79.82
18850;BME280;4989;48.772;9.154;2024-01-06T12:39:38;97144.88;;;10.30;87.48
18850;BME280;4989;48.772;9.154;2024-01-06T12:44:43;97139.09;;;10.41;85.49
18850;BME280;4989;48.772;9.154;2024-01-06T12:49:49;97133.94;;;10.56;87.67
18850;BME280;4989;48.772;9.154;2024-01-06T12:55:02;97133.53;;;10.45;84.14
18850;BME280;4989;48.772;9.154;2024-01-06T13:00:06;97139.91;;;10.29;90.20
18850;BME280;4989;48.772;9.154;2024-01-06T13:05:11;97144.56;;;10.16;89.77
18850;BME280;4989;48.772;9.154;2024-01-06T13:10:15;97139.94;;;10.03;90.58
18850;BME280;4989;48.772;9.154;2024-01-06T13:15:17;97143.28;;;10.07;96.88
18850;BME280;4989;48.772;9.154;2024-01-06T13:20:20;97150.66;;;10.20;92.71
18850;BME280;4989;48.772;9.154;2024-01-06T13:25:23;97155.06;;;9.92;87.59
18850;BME280;4989;48.772;9.154;2024-01-06T13:30:27;97151.75;;;10.09;94.24
18850;BME280;4989;48.772;9.154;2024-01-06T13:35:53;97158.59;;;10.27;93.37
18850;BME280;4989;48.772;9.154;2024-01-06T13:40:57;97164.63;;;10.66;97.44
18850;BME280;4989;48.772;9.154;2024-01-06T13:46:00;97170.69;;;10.48;92.79
18850;BME280;4989;48.772;9.154;2024-01-06T13:51:04;97168.66;;;10.39;93.72
18850;BME280;4989;48.772;9.154;2024-01-06T13:56:07;97171.56;;;10.67;96.31
18850;BME280;4989;48.772;9.154;2024-01-06T14:01:09;97179.19;;;10.72;90.43
18850;BME280;4989;48.772;9.154;2024-01-06T14:06:14;97189.84;;;10.31;89.47
18850;BME280;4989;48.772;9.154;2024-01-06T14:11:20;97187.13;;;10.31;98.72
18850;BME280;4989;48.772;9.154;2024-01-06T14:16:53;97196.16;;;10.16;97.47
18850;BME280;4989;48.772;9.154;2024-01-06T14:22:18;97199.31;;;10.27;95.57
18850;BME280;4989;48.772;9.154;2024-01-06T14:27:39;97190.44;;;10.14;95.06
18850;BME280;4989;48.772;9.154;2024-01-06T14:32:48;97201.06;;;9.95;97.26
18850;BME280;4989;48.772;9.154;2024-01-06T14:38:02;97210.72;;;10.09;92.46
18850;BME280;4989;48.772;9.154;2024-01-06T14:43:34;97214.53;;;10.12;93.63
18850;BME280;4989;48.772;9.154;2024-01-06T14:48:43;97230.59;;;10.19;98.22
18850;BME280;4989;48.772;9.154;2024-01-06T14:53:49;97218.97;;;10.18;98.63
18850;BME280;4989;48.772;9.154;2024-01-06T14:59:35;97223.03;;;9.88;96.27
18850;BME280;4989;48.772;9.154;2024-01-06T15:05:24;97233.00;;;9.91;100.00
18850;BME280;4989;48.772;9.154;2024-01-06T15:10:34;97241.69;;;9.86;97.81
18850;BME280;4989;48.772;9.154;2024-01-06T15:16:06;97236.78;;;10.06;100.00
18850;BME280;4989;48.772;9.154;2024-01-06T15:22:10;97246.38;;;9.60;97.71
18850;BME280;4989;48.772;9.154;2024-01-06T15:34:19;97256.81;;;8.29;100.00
18850;BME280;4989;48.772;9.154;2024-01-06T15:39:36;97253.53;;;8.83;100.00
18850;BME280;4989;48.772;9.154;2024-01-06T15:44:51;97257.88;;;9.09;100.00
18850;BME280;4989;48.772;9.154;2024-01-06T15:50:29;97255.34;;;9.44;100.00
18850;BME280;4989;48.772;9.154;2024-01-06T15:55:32;97261.22;;;9.55;100.00
18850;BME280;4989;48.772;9.154;2024-01-06T16:00:34;97255.59;;;9.62;98.88
18850;BME280;4989;48.772;9.154;2024-01-06T16:05:40;97260.47;;;9.68;100.00
18850;BME280;4989;48.772;9.154;2024-01-06T16:10:53;97249.84;;;9.86;100.00
18850;BME280;4989;48.772;9.154;2024-01-06T16:15:57;97248.31;;;9.85;100.00
18850;BME280;4989;48.772;9.154;2024-01-06T16:21:00;97246.25;;;9.89;100.00
18850;BME280;4989;48.772;9.154;2024-01-06T16:26:06;97248.88;;;10.05;100.00
18850;BME280;4989;48.772;9.154;2024-01-06T16:31:15;97263.97;;;9.81;100.00
18850;BME280;4989;48.772;9.154;2024-01-06T16:36:35;97264.59;;;9.85;98.99
18850;BME280;4989;48.772;9.154;2024-01-06T16:42:08;97270.78;;;9.73;99.45
18850;BME280;4989;48.772;9.154;2024-01-06T16:47:16;97276.66;;;9.84;100.00
18850;BME280;4989;48.772;9.154;2024-01-06T16:52:34;97270.16;;;9.69;100.00
18850;BME280;4989;48.772;9.154;2024-01-06T16:57:38;97281.41;;;9.80;99.37
18850;BME280;4989;48.772;9.154;2024-01-06T17:02:41;97276.31;;;9.69;100.00
18850;BME280;4989;48.772;9.154;2024-01-06T17:07:47;97280.78;;;9.63;100.00
18850;BME280;4989;48.772;9.154;2024-01-06T17:12:54;97283.16;;;9.74;100.00
18850;BME280;4989;48.772;9.154;2024-01-06T17:18:20;97294.69;;;9.78;100.00
18850;BME280;4989;48.772;9.154;2024-01-06T17:23:50;97291.09;;;9.81;100.00
18850;BME280;4989;48.772;9.154;2024-01-06T17:29:09;97298.38;;;9.84;100.00
18850;BME280;4989;48.772;9.154;2024-01-06T17:34:14;97306.28;;;9.78;100.00
18850;BME280;4989;48.772;9.154;2024-01-06T17:39:26;97313.09;;;9.57;100.00
18850;BME280;4989;48.772;9.154;2024-01-06T17:44:33;97314.28;;;9.56;100.00
18850;BME280;4989;48.772;9.154;2024-01-06T17:55:35;97320.09;;;9.84;100.00
18850;BME280;4989;48.772;9.154;2024-01-06T18:01:06;97324.75;;;9.83;100.00
18850;BME280;4989;48.772;9.154;2024-01-06T18:06:34;97320.09;;;9.84;99.35
18850;BME280;4989;48.772;9.154;2024-01-06T18:12:04;97319.34;;;9.83;100.00
18850;BME280;4989;48.772;9.154;2024-01-06T18:17:12;97310.75;;;9.85;100.00
18850;BME280;4989;48.772;9.154;2024-01-06T18:22:15;97317.69;;;9.86;100.00
18850;BME280;4989;48.772;9.154;2024-01-06T18:27:18;97326.81;;;9.92;100.00
18850;BME280;4989;48.772;9.154;2024-01-06T18:32:21;97322.59;;;9.91;100.00
18850;BME280;4989;48.772;9.154;2024-01-06T18:37:24;97335.03;;;9.63;100.00
18850;BME280;4989;48.772;9.154;2024-01-06T18:42:27;97334.41;;;9.72;100.00
18850;BME280;4989;48.772;9.154;2024-01-06T18:47:37;97339.03;;;9.71;100.00
18850;BME280;4989;48.772;9.154;2024-01-06T18:52:51;97334.91;;;9.67;100.00
18850;BME280;4989;48.772;9.154;2024-01-06T19:03:50;97338.50;;;9.63;100.00
18850;BME280;4989;48.772;9.154;2024-01-06T19:09:02;97335.69;;;9.80;100.00
18850;BME280;4989;48.772;9.154;2024-01-06T19:14:13;97335.69;;;9.80;100.00
18850;BME280;4989;48.772;9.154;2024-01-06T19:19:28;97337.41;;;9.74;100.00
18850;BME280;4989;48.772;9.154;2024-01-06T19:24:50;97332.84;;;9.71;100.00
18850;BME280;4989;48.772;9.154;2024-01-06T19:30:03;97334.81;;;9.83;100.00
18850;BME280;4989;48.772;9.154;2024-01-06T19:35:06;97330.06;;;9.87;100.00
18850;BME280;4989;48.772;9.154;2024-01-06T19:40:10;97331.50;;;10.55;100.00
18850;BME280;4989;48.772;9.154;2024-01-06T19:45:21;97335.19;;;10.23;100.00
18850;BME280;4989;48.772;9.154;2024-01-06T19:50:39;97340.06;;;10.16;100.00
18850;BME280;4989;48.772;9.154;2024-01-06T19:55:53;97337.91;;;10.11;100.00
18850;BME280;4989;48.772;9.154;2024-01-06T20:00:58;97335.75;;;10.31;100.00
18850;BME280;4989;48.772;9.154;2024-01-06T20:06:10;97333.38;;;10.33;100.00
18850;BME280;4989;48.772;9.154;2024-01-06T20:11:21;97340.19;;;10.38;100.00
18850;BME280;4989;48.772;9.154;2024-01-06T20:16:32;97335.75;;;10.05;100.00
18850;BME280;4989;48.772;9.154;2024-01-06T20:22:19;97334.75;;;11.11;100.00
18850;BME280;4989;48.772;9.154;2024-01-06T20:27:25;97331.88;;;12.43;100.00
18850;BME280;4989;48.772;9.154;2024-01-06T20:32:36;97328.00;;;13.82;92.65
18850;BME280;4989;48.772;9.154;2024-01-06T20:37:43;97335.63;;;13.68;88.71
18850;BME280;4989;48.772;9.154;2024-01-06T20:42:58;97341.69;;;14.57;91.52
18850;BME280;4989;48.772;9.154;2024-01-06T20:48:30;97327.38;;;15.10;77.50
18850;BME280;4989;48.772;9.154;2024-01-06T20:53:33;97326.81;;;14.58;82.50
18850;BME280;4989;48.772;9.154;2024-01-06T20:58:39;97325.00;;;14.79;80.08
18850;BME280;4989;48.772;9.154;2024-01-06T21:04:02;97313.53;;;14.90;82.02
18850;BME280;4989;48.772;9.154;2024-01-06T21:09:07;97315.53;;;15.28;76.93
18850;BME280;4989;48.772;9.154;2024-01-06T21:14:23;97322.44;;;14.52;77.18
18850;BME280;4989;48.772;9.154;2024-01-06T21:19:29;97320.56;;;14.25;72.40
18850;BME280;4989;48.772;9.154;2024-01-06T21:24:56;97319.41;;;14.16;76.97
18850;BME280;4989;48.772;9.154;2024-01-06T21:30:10;97321.81;;;13.72;84.25
18850;BME280;4989;48.772;9.154;2024-01-06T21:35:21;97330.66;;;13.30;83.92
18850;BME280;4989;48.772;9.154;2024-01-06T21:40:32;97328.38;;;13.38;84.07
18850;BME280;4989;48.772;9.154;2024-01-06T21:45:39;97324.97;;;12.69;82.76
18850;BME280;4989;48.772;9.154;2024-01-06T21:50:45;97332.56;;;12.65;84.93
18850;BME280;4989;48.772;9.154;2024-01-06T21:56:00;97336.41;;;12.46;79.68
18850;BME280;4989;48.772;9.154;2024-01-06T22:01:10;97335.50;;;11.77;82.54
18850;BME280;4989;48.772;9.154;2024-01-06T22:06:22;97347.63;;;11.19;94.40
18850;BME280;4989;48.772;9.154;2024-01-06T22:11:26;97346.47;;;12.67;98.73
18850;BME280;4989;48.772;9.154;2024-01-06T22:17:08;97348.97;;;12.93;88.53
18850;BME280;4989;48.772;9.154;2024-01-06T22:22:38;97351.56;;;11.84;87.70
18850;BME280;4989;48.772;9.154;2024-01-06T22:28:20;97357.53;;;11.26;85.89
18850;BME280;4989;48.772;9.154;2024-01-06T22:33:55;97351.97;;;11.96;97.94
18850;BME280;4989;48.772;9.154;2024-01-06T22:39:14;97349.75;;;12.44;90.43
18850;BME280;4989;48.772;9.154;2024-01-06T22:44:25;97352.25;;;12.69;91.06
18850;BME280;4989;48.772;9.154;2024-01-06T22:49:29;97351.88;;;13.35;89.88
18850;BME280;4989;48.772;9.154;2024-01-06T22:54:57;97357.59;;;14.35;86.05
18850;BME280;4989;48.772;9.154;2024-01-06T23:00:13;97357.44;;;13.87;85.88
18850;BME280;4989;48.772;9.154;2024-01-06T23:05:50;97360.78;;;14.66;81.79
18850;BME280;4989;48.772;9.154;2024-01-06T23:11:07;97368.69;;;14.31;73.13
18850;BME280;4989;48.772;9.154;2024-01-06T23:16:13;97366.75;;;14.23;75.81
18850;BME280;4989;48.772;9.154;2024-01-06T23:21:17;97369.88;;;13.88;79.16
18850;BME280;4989;48.772;9.154;2024-01-06T23:26:19;97379.13;;;14.42;78.87
18850;BME280;4989;48.772;9.154;2024-01-06T23:31:31;97380.50;;;13.86;77.07
18850;BME280;4989;48.772;9.154;2024-01-06T23:36:44;97378.34;;;13.99;77.16
18850;BME280;4989;48.772;9.154;2024-01-06T23:42:33;97388.09;;;13.82;77.20
18850;BME280;4989;48.772;9.154;2024-01-06T23:47:46;97381.72;;;13.75;76.16
18850;BME280;4989;48.772;9.154;2024-01-06T23:52:56;97381.25;;;13.95;77.59
18850;BME280;4989;48.772;9.154;2024-01-06T23:58:05;97388.16;;;14.15;76.18
